sensor_id;sensor_type;location;lat;lon;timestamp;temperature;humidity
17202;DHT22;8717;53.588;10.176;2022-12-07T00:01:21;2.10;99.90
17202;DHT22;8717;53.588;10.176;2022-12-07T00:03:50;2.10;99.90
17202;DHT22;8717;53.588;10.176;2022-12-07T00:06:19;2.10;99.90
17202;DHT22;8717;53.588;10.176;2022-12-07T00:08:47;2.20;99.90
17202;DHT22;8717;53.588;10.176;2022-12-07T00:11:16;2.30;99.90
17202;DHT22;8717;53.588;10.176;2022-12-07T00:13:43;2.30;99.90
17202;DHT22;8717;53.588;10.176;2022-12-07T00:16:11;2.30;99.90
17202;DHT22;8717;53.588;10.176;2022-12-07T00:18:39;2.40;99.90
17202;DHT22;8717;53.588;10.176;2022-12-07T00:21:08;2.50;99.90
17202;DHT22;8717;53.588;10.176;2022-12-07T00:23:37;2.50;99.90
17202;DHT22;8717;53.588;10.176;2022-12-07T00:26:05;2.60;99.90
17202;DHT22;8717;53.588;10.176;2022-12-07T00:28:32;2.60;99.90
17202;DHT22;8717;53.588;10.176;2022-12-07T00:31:02;2.60;99.90
17202;DHT22;8717;53.588;10.176;2022-12-07T00:33:28;2.60;99.90
17202;DHT22;8717;53.588;10.176;2022-12-07T00:35:56;2.70;99.90
17202;DHT22;8717;53.588;10.176;2022-12-07T00:38:23;2.70;99.90
17202;DHT22;8717;53.588;10.176;2022-12-07T00:40:55;2.70;99.90
17202;DHT22;8717;53.588;10.176;2022-12-07T00:43:22;2.80;99.90
17202;DHT22;8717;53.588;10.176;2022-12-07T00:45:52;2.80;99.90
17202;DHT22;8717;53.588;10.176;2022-12-07T00:48:19;2.80;99.90
17202;DHT22;8717;53.588;10.176;2022-12-07T00:50:46;2.80;99.90
17202;DHT22;8717;53.588;10.176;2022-12-07T00:53:13;2.80;99.90
17202;DHT22;8717;53.588;10.176;2022-12-07T00:55:41;2.90;99.90
17202;DHT22;8717;53.588;10.176;2022-12-07T00:58:10;2.90;99.90
17202;DHT22;8717;53.588;10.176;2022-12-07T01:00:39;2.90;99.90
17202;DHT22;8717;53.588;10.176;2022-12-07T01:03:08;2.90;99.90
17202;DHT22;8717;53.588;10.176;2022-12-07T01:05:35;2.90;99.90
17202;DHT22;8717;53.588;10.176;2022-12-07T01:08:03;2.90;99.90
17202;DHT22;8717;53.588;10.176;2022-12-07T01:10:30;2.90;99.90
17202;DHT22;8717;53.588;10.176;2022-12-07T01:12:57;2.90;99.90
17202;DHT22;8717;53.588;10.176;2022-12-07T01:15:26;2.90;99.90
17202;DHT22;8717;53.588;10.176;2022-12-07T01:17:53;2.90;99.90
17202;DHT22;8717;53.588;10.176;2022-12-07T01:20:20;3.00;99.90
17202;DHT22;8717;53.588;10.176;2022-12-07T01:22:47;3.00;99.90
17202;DHT22;8717;53.588;10.176;2022-12-07T01:25:13;3.00;99.90
17202;DHT22;8717;53.588;10.176;2022-12-07T01:27:40;3.00;99.90
17202;DHT22;8717;53.588;10.176;2022-12-07T01:30:09;3.00;99.90
17202;DHT22;8717;53.588;10.176;2022-12-07T01:32:38;3.10;99.90
17202;DHT22;8717;53.588;10.176;2022-12-07T01:35:05;3.10;99.90
17202;DHT22;8717;53.588;10.176;2022-12-07T01:37:34;3.10;99.90
17202;DHT22;8717;53.588;10.176;2022-12-07T01:40:03;3.10;99.90
17202;DHT22;8717;53.588;10.176;2022-12-07T01:42:30;3.10;99.90
17202;DHT22;8717;53.588;10.176;2022-12-07T01:48:13;3.10;99.90
17202;DHT22;8717;53.588;10.176;2022-12-07T01:50:43;3.10;99.90
17202;DHT22;8717;53.588;10.176;2022-12-07T01:53:11;3.10;99.90
17202;DHT22;8717;53.588;10.176;2022-12-07T01:55:42;3.10;99.90
17202;DHT22;8717;53.588;10.176;2022-12-07T01:58:11;3.10;99.90
17202;DHT22;8717;53.588;10.176;2022-12-07T02:00:38;3.10;99.90
17202;DHT22;8717;53.588;10.176;2022-12-07T02:03:13;3.10;99.90
17202;DHT22;8717;53.588;10.176;2022-12-07T02:05:41;3.00;99.90
17202;DHT22;8717;53.588;10.176;2022-12-07T02:08:10;3.00;99.90
17202;DHT22;8717;53.588;10.176;2022-12-07T02:10:38;3.00;99.90
17202;DHT22;8717;53.588;10.176;2022-12-07T02:13:09;3.00;99.90
17202;DHT22;8717;53.588;10.176;2022-12-07T02:15:47;2.90;99.90
17202;DHT22;8717;53.588;10.176;2022-12-07T02:18:24;2.90;99.90
17202;DHT22;8717;53.588;10.176;2022-12-07T02:20:58;2.80;99.90
17202;DHT22;8717;53.588;10.176;2022-12-07T02:23:41;2.80;99.90
17202;DHT22;8717;53.588;10.176;2022-12-07T02:26:38;2.70;99.90
17202;DHT22;8717;53.588;10.176;2022-12-07T02:29:14;2.60;99.90
17202;DHT22;8717;53.588;10.176;2022-12-07T02:31:46;2.60;99.90
17202;DHT22;8717;53.588;10.176;2022-12-07T02:34:21;2.50;99.90
17202;DHT22;8717;53.588;10.176;2022-12-07T02:36:54;2.50;99.90
17202;DHT22;8717;53.588;10.176;2022-12-07T02:39:28;2.40;99.90
17202;DHT22;8717;53.588;10.176;2022-12-07T02:42:02;2.40;99.90
17202;DHT22;8717;53.588;10.176;2022-12-07T02:44:31;2.30;99.90
17202;DHT22;8717;53.588;10.176;2022-12-07T02:47:02;2.40;99.90
17202;DHT22;8717;53.588;10.176;2022-12-07T02:49:30;2.40;99.90
17202;DHT22;8717;53.588;10.176;2022-12-07T02:51:58;2.40;99.90
17202;DHT22;8717;53.588;10.176;2022-12-07T02:54:24;2.40;99.90
17202;DHT22;8717;53.588;10.176;2022-12-07T02:56:56;2.40;99.90
17202;DHT22;8717;53.588;10.176;2022-12-07T02:59:32;2.40;99.90
17202;DHT22;8717;53.588;10.176;2022-12-07T03:02:12;2.40;99.90
17202;DHT22;8717;53.588;10.176;2022-12-07T03:04:47;2.40;99.90
17202;DHT22;8717;53.588;10.176;2022-12-07T03:07:24;2.50;99.90
17202;DHT22;8717;53.588;10.176;2022-12-07T03:09:59;2.50;99.90
17202;DHT22;8717;53.588;10.176;2022-12-07T03:12:31;2.50;99.90
17202;DHT22;8717;53.588;10.176;2022-12-07T03:15:02;2.40;99.90
17202;DHT22;8717;53.588;10.176;2022-12-07T03:17:34;2.40;99.90
17202;DHT22;8717;53.588;10.176;2022-12-07T03:20:06;2.30;99.90
17202;DHT22;8717;53.588;10.176;2022-12-07T03:22:35;2.30;99.90
17202;DHT22;8717;53.588;10.176;2022-12-07T03:25:07;2.20;99.90
17202;DHT22;8717;53.588;10.176;2022-12-07T03:27:41;2.10;99.90
17202;DHT22;8717;53.588;10.176;2022-12-07T03:30:14;2.10;99.90
17202;DHT22;8717;53.588;10.176;2022-12-07T03:32:44;2.00;99.90
17202;DHT22;8717;53.588;10.176;2022-12-07T03:35:14;2.00;99.90
17202;DHT22;8717;53.588;10.176;2022-12-07T03:37:47;1.90;99.90
17202;DHT22;8717;53.588;10.176;2022-12-07T03:40:18;1.80;99.90
17202;DHT22;8717;53.588;10.176;2022-12-07T03:42:47;1.70;99.90
17202;DHT22;8717;53.588;10.176;2022-12-07T03:45:16;1.70;99.90
17202;DHT22;8717;53.588;10.176;2022-12-07T03:47:47;1.60;99.90
17202;DHT22;8717;53.588;10.176;2022-12-07T03:50:22;1.60;99.90
17202;DHT22;8717;53.588;10.176;2022-12-07T03:52:55;1.50;99.90
17202;DHT22;8717;53.588;10.176;2022-12-07T03:55:26;1.50;99.90
17202;DHT22;8717;53.588;10.176;2022-12-07T03:57:58;1.50;99.90
17202;DHT22;8717;53.588;10.176;2022-12-07T04:00:27;1.40;99.90
17202;DHT22;8717;53.588;10.176;2022-12-07T04:02:55;1.40;99.90
17202;DHT22;8717;53.588;10.176;2022-12-07T04:05:22;1.40;99.90
17202;DHT22;8717;53.588;10.176;2022-12-07T04:07:50;1.40;99.90
17202;DHT22;8717;53.588;10.176;2022-12-07T04:10:17;1.30;99.90
17202;DHT22;8717;53.588;10.176;2022-12-07T04:12:44;1.30;99.90
17202;DHT22;8717;53.588;10.176;2022-12-07T04:15:11;1.30;99.90
17202;DHT22;8717;53.588;10.176;2022-12-07T04:17:39;1.20;99.90
17202;DHT22;8717;53.588;10.176;2022-12-07T04:20:07;1.20;99.90
17202;DHT22;8717;53.588;10.176;2022-12-07T04:22:34;1.20;99.90
17202;DHT22;8717;53.588;10.176;2022-12-07T04:25:01;1.10;99.90
17202;DHT22;8717;53.588;10.176;2022-12-07T04:27:27;1.10;99.90
17202;DHT22;8717;53.588;10.176;2022-12-07T04:29:54;1.10;99.90
17202;DHT22;8717;53.588;10.176;2022-12-07T04:32:21;1.10;99.90
17202;DHT22;8717;53.588;10.176;2022-12-07T04:34:49;1.00;99.90
17202;DHT22;8717;53.588;10.176;2022-12-07T04:37:17;1.00;99.90
17202;DHT22;8717;53.588;10.176;2022-12-07T04:39:44;1.00;99.90
17202;DHT22;8717;53.588;10.176;2022-12-07T04:42:11;1.00;99.90
17202;DHT22;8717;53.588;10.176;2022-12-07T04:44:38;0.90;99.90
17202;DHT22;8717;53.588;10.176;2022-12-07T04:47:05;0.90;99.90
17202;DHT22;8717;53.588;10.176;2022-12-07T04:49:33;0.90;99.90
17202;DHT22;8717;53.588;10.176;2022-12-07T04:52:01;0.90;99.90
17202;DHT22;8717;53.588;10.176;2022-12-07T04:54:28;0.90;99.90
17202;DHT22;8717;53.588;10.176;2022-12-07T04:56:54;0.80;99.90
17202;DHT22;8717;53.588;10.176;2022-12-07T04:59:21;0.80;99.90
17202;DHT22;8717;53.588;10.176;2022-12-07T05:01:48;0.80;99.90
17202;DHT22;8717;53.588;10.176;2022-12-07T05:04:14;0.80;99.90
17202;DHT22;8717;53.588;10.176;2022-12-07T05:06:43;0.80;99.90
17202;DHT22;8717;53.588;10.176;2022-12-07T05:09:11;0.70;99.90
17202;DHT22;8717;53.588;10.176;2022-12-07T05:11:38;0.70;99.90
17202;DHT22;8717;53.588;10.176;2022-12-07T05:14:06;0.70;99.90
17202;DHT22;8717;53.588;10.176;2022-12-07T05:16:33;0.60;99.90
17202;DHT22;8717;53.588;10.176;2022-12-07T05:19:00;0.60;99.90
17202;DHT22;8717;53.588;10.176;2022-12-07T05:21:27;0.60;99.90
17202;DHT22;8717;53.588;10.176;2022-12-07T05:23:54;0.60;99.90
17202;DHT22;8717;53.588;10.176;2022-12-07T05:26:23;0.60;99.90
17202;DHT22;8717;53.588;10.176;2022-12-07T05:28:51;0.50;99.90
17202;DHT22;8717;53.588;10.176;2022-12-07T05:31:18;0.50;99.90
17202;DHT22;8717;53.588;10.176;2022-12-07T05:33:45;0.40;99.90
17202;DHT22;8717;53.588;10.176;2022-12-07T05:36:12;0.40;99.90
17202;DHT22;8717;53.588;10.176;2022-12-07T05:38:40;0.40;99.90
17202;DHT22;8717;53.588;10.176;2022-12-07T05:41:07;0.40;99.90
17202;DHT22;8717;53.588;10.176;2022-12-07T05:43:57;0.30;99.90
17202;DHT22;8717;53.588;10.176;2022-12-07T05:46:24;0.30;99.90
17202;DHT22;8717;53.588;10.176;2022-12-07T05:48:52;0.30;99.90
17202;DHT22;8717;53.588;10.176;2022-12-07T05:51:19;0.30;99.90
17202;DHT22;8717;53.588;10.176;2022-12-07T05:53:46;0.30;99.90
17202;DHT22;8717;53.588;10.176;2022-12-07T05:56:12;0.30;99.90
17202;DHT22;8717;53.588;10.176;2022-12-07T05:58:39;0.30;99.90
17202;DHT22;8717;53.588;10.176;2022-12-07T06:01:25;0.30;99.90
17202;DHT22;8717;53.588;10.176;2022-12-07T06:03:51;0.30;99.90
17202;DHT22;8717;53.588;10.176;2022-12-07T06:06:18;0.30;99.90
17202;DHT22;8717;53.588;10.176;2022-12-07T06:08:45;0.20;99.90
17202;DHT22;8717;53.588;10.176;2022-12-07T06:11:12;0.20;99.90
17202;DHT22;8717;53.588;10.176;2022-12-07T06:13:56;0.20;99.90
17202;DHT22;8717;53.588;10.176;2022-12-07T06:16:24;0.10;99.90
17202;DHT22;8717;53.588;10.176;2022-12-07T06:18:51;0.10;99.90
17202;DHT22;8717;53.588;10.176;2022-12-07T06:21:17;0.00;99.90
17202;DHT22;8717;53.588;10.176;2022-12-07T06:23:47;0.00;99.90
17202;DHT22;8717;53.588;10.176;2022-12-07T06:26:14;0.00;99.90
17202;DHT22;8717;53.588;10.176;2022-12-07T06:28:41;-0.10;99.90
17202;DHT22;8717;53.588;10.176;2022-12-07T06:31:08;-0.10;99.90
17202;DHT22;8717;53.588;10.176;2022-12-07T06:33:36;-0.10;99.90
17202;DHT22;8717;53.588;10.176;2022-12-07T06:36:04;-0.10;99.90
17202;DHT22;8717;53.588;10.176;2022-12-07T06:38:31;-0.10;99.90
17202;DHT22;8717;53.588;10.176;2022-12-07T06:40:58;-0.10;99.90
17202;DHT22;8717;53.588;10.176;2022-12-07T06:43:25;-0.10;99.90
17202;DHT22;8717;53.588;10.176;2022-12-07T06:45:52;-0.10;99.90
17202;DHT22;8717;53.588;10.176;2022-12-07T06:48:19;-0.10;99.90
17202;DHT22;8717;53.588;10.176;2022-12-07T06:50:48;-0.10;99.90
17202;DHT22;8717;53.588;10.176;2022-12-07T06:53:14;0.00;99.90
17202;DHT22;8717;53.588;10.176;2022-12-07T06:55:41;0.00;99.90
17202;DHT22;8717;53.588;10.176;2022-12-07T06:58:08;0.00;99.90
17202;DHT22;8717;53.588;10.176;2022-12-07T07:00:34;0.10;99.90
17202;DHT22;8717;53.588;10.176;2022-12-07T07:03:01;0.10;99.90
17202;DHT22;8717;53.588;10.176;2022-12-07T07:05:28;0.20;99.90
17202;DHT22;8717;53.588;10.176;2022-12-07T07:07:56;0.20;99.90
17202;DHT22;8717;53.588;10.176;2022-12-07T07:10:22;0.20;99.90
17202;DHT22;8717;53.588;10.176;2022-12-07T07:12:49;0.20;99.90
17202;DHT22;8717;53.588;10.176;2022-12-07T07:15:16;0.20;99.90
17202;DHT22;8717;53.588;10.176;2022-12-07T07:17:43;0.20;99.90
17202;DHT22;8717;53.588;10.176;2022-12-07T07:20:11;0.30;99.90
17202;DHT22;8717;53.588;10.176;2022-12-07T07:22:37;0.30;99.90
17202;DHT22;8717;53.588;10.176;2022-12-07T07:25:06;0.40;99.90
17202;DHT22;8717;53.588;10.176;2022-12-07T07:27:33;0.40;99.90
17202;DHT22;8717;53.588;10.176;2022-12-07T07:29:59;0.40;99.90
17202;DHT22;8717;53.588;10.176;2022-12-07T07:32:26;0.40;99.90
17202;DHT22;8717;53.588;10.176;2022-12-07T07:34:53;0.50;99.90
17202;DHT22;8717;53.588;10.176;2022-12-07T07:37:20;0.50;99.90
17202;DHT22;8717;53.588;10.176;2022-12-07T07:39:46;0.60;99.90
17202;DHT22;8717;53.588;10.176;2022-12-07T07:42:14;0.60;99.90
17202;DHT22;8717;53.588;10.176;2022-12-07T07:44:42;0.70;99.90
17202;DHT22;8717;53.588;10.176;2022-12-07T07:47:09;0.70;99.90
17202;DHT22;8717;53.588;10.176;2022-12-07T07:49:36;0.80;99.90
17202;DHT22;8717;53.588;10.176;2022-12-07T07:52:03;0.80;99.90
17202;DHT22;8717;53.588;10.176;2022-12-07T07:54:31;0.80;99.90
17202;DHT22;8717;53.588;10.176;2022-12-07T07:56:57;0.90;99.90
17202;DHT22;8717;53.588;10.176;2022-12-07T07:59:26;0.90;99.90
17202;DHT22;8717;53.588;10.176;2022-12-07T08:01:52;1.00;99.90
17202;DHT22;8717;53.588;10.176;2022-12-07T08:04:19;1.00;99.90
17202;DHT22;8717;53.588;10.176;2022-12-07T08:06:46;1.00;99.90
17202;DHT22;8717;53.588;10.176;2022-12-07T08:09:12;1.10;99.90
17202;DHT22;8717;53.588;10.176;2022-12-07T08:11:39;1.10;99.90
17202;DHT22;8717;53.588;10.176;2022-12-07T08:14:05;1.20;99.90
17202;DHT22;8717;53.588;10.176;2022-12-07T08:16:33;1.20;99.90
17202;DHT22;8717;53.588;10.176;2022-12-07T08:19:00;1.20;99.90
17202;DHT22;8717;53.588;10.176;2022-12-07T08:21:27;1.30;99.90
17202;DHT22;8717;53.588;10.176;2022-12-07T08:23:53;1.30;99.90
17202;DHT22;8717;53.588;10.176;2022-12-07T08:26:20;1.30;99.90
17202;DHT22;8717;53.588;10.176;2022-12-07T08:28:47;1.30;99.90
17202;DHT22;8717;53.588;10.176;2022-12-07T08:31:16;1.30;99.90
17202;DHT22;8717;53.588;10.176;2022-12-07T08:33:46;1.40;99.90
17202;DHT22;8717;53.588;10.176;2022-12-07T08:36:13;1.40;99.90
17202;DHT22;8717;53.588;10.176;2022-12-07T08:38:40;1.40;99.90
17202;DHT22;8717;53.588;10.176;2022-12-07T08:41:08;1.50;99.90
17202;DHT22;8717;53.588;10.176;2022-12-07T08:43:35;1.50;99.90
17202;DHT22;8717;53.588;10.176;2022-12-07T08:46:07;1.60;99.90
17202;DHT22;8717;53.588;10.176;2022-12-07T08:48:37;1.50;99.90
17202;DHT22;8717;53.588;10.176;2022-12-07T08:51:06;1.60;99.90
17202;DHT22;8717;53.588;10.176;2022-12-07T08:53:34;1.60;99.90
17202;DHT22;8717;53.588;10.176;2022-12-07T08:56:01;1.70;99.90
17202;DHT22;8717;53.588;10.176;2022-12-07T08:58:28;1.70;99.90
17202;DHT22;8717;53.588;10.176;2022-12-07T09:00:55;1.80;99.90
17202;DHT22;8717;53.588;10.176;2022-12-07T09:03:22;1.90;99.90
17202;DHT22;8717;53.588;10.176;2022-12-07T09:05:48;1.80;99.90
17202;DHT22;8717;53.588;10.176;2022-12-07T09:08:16;1.90;99.90
17202;DHT22;8717;53.588;10.176;2022-12-07T09:10:43;1.90;99.90
17202;DHT22;8717;53.588;10.176;2022-12-07T09:13:11;2.00;99.90
17202;DHT22;8717;53.588;10.176;2022-12-07T09:15:37;2.10;99.90
17202;DHT22;8717;53.588;10.176;2022-12-07T09:18:05;2.10;99.90
17202;DHT22;8717;53.588;10.176;2022-12-07T09:20:31;2.20;99.90
17202;DHT22;8717;53.588;10.176;2022-12-07T09:22:58;2.30;99.90
17202;DHT22;8717;53.588;10.176;2022-12-07T09:25:26;2.40;99.90
17202;DHT22;8717;53.588;10.176;2022-12-07T09:27:56;2.50;99.90
17202;DHT22;8717;53.588;10.176;2022-12-07T09:30:23;2.60;99.90
17202;DHT22;8717;53.588;10.176;2022-12-07T09:32:52;2.60;99.90
17202;DHT22;8717;53.588;10.176;2022-12-07T09:35:19;2.70;99.90
17202;DHT22;8717;53.588;10.176;2022-12-07T09:37:45;2.70;99.90
17202;DHT22;8717;53.588;10.176;2022-12-07T09:40:13;2.80;99.90
17202;DHT22;8717;53.588;10.176;2022-12-07T09:42:44;2.90;99.90
17202;DHT22;8717;53.588;10.176;2022-12-07T09:45:13;2.90;99.90
17202;DHT22;8717;53.588;10.176;2022-12-07T09:47:41;3.00;99.90
17202;DHT22;8717;53.588;10.176;2022-12-07T09:50:13;3.00;99.90
17202;DHT22;8717;53.588;10.176;2022-12-07T09:52:41;3.10;99.90
17202;DHT22;8717;53.588;10.176;2022-12-07T09:55:14;3.20;99.90
17202;DHT22;8717;53.588;10.176;2022-12-07T09:57:43;3.30;99.90
17202;DHT22;8717;53.588;10.176;2022-12-07T10:00:13;3.30;99.90
17202;DHT22;8717;53.588;10.176;2022-12-07T10:02:42;3.40;99.90
17202;DHT22;8717;53.588;10.176;2022-12-07T10:05:13;3.40;99.90
17202;DHT22;8717;53.588;10.176;2022-12-07T10:07:41;3.50;99.90
17202;DHT22;8717;53.588;10.176;2022-12-07T10:10:14;3.50;99.90
17202;DHT22;8717;53.588;10.176;2022-12-07T10:12:59;3.60;99.90
17202;DHT22;8717;53.588;10.176;2022-12-07T10:15:57;3.70;99.90
17202;DHT22;8717;53.588;10.176;2022-12-07T10:18:29;3.80;99.90
17202;DHT22;8717;53.588;10.176;2022-12-07T10:21:13;3.90;99.90
17202;DHT22;8717;53.588;10.176;2022-12-07T10:23:43;4.00;99.90
17202;DHT22;8717;53.588;10.176;2022-12-07T10:26:30;4.00;99.90
17202;DHT22;8717;53.588;10.176;2022-12-07T10:29:01;4.10;99.90
17202;DHT22;8717;53.588;10.176;2022-12-07T10:31:28;4.10;99.90
17202;DHT22;8717;53.588;10.176;2022-12-07T10:33:57;4.20;99.90
17202;DHT22;8717;53.588;10.176;2022-12-07T10:36:26;4.20;99.90
17202;DHT22;8717;53.588;10.176;2022-12-07T10:38:59;4.20;99.90
17202;DHT22;8717;53.588;10.176;2022-12-07T10:41:26;4.30;99.90
17202;DHT22;8717;53.588;10.176;2022-12-07T10:43:54;4.30;99.90
17202;DHT22;8717;53.588;10.176;2022-12-07T10:46:49;4.30;99.90
17202;DHT22;8717;53.588;10.176;2022-12-07T10:52:48;4.40;99.90
17202;DHT22;8717;53.588;10.176;2022-12-07T10:55:23;4.40;99.90
17202;DHT22;8717;53.588;10.176;2022-12-07T10:58:17;4.40;99.90
17202;DHT22;8717;53.588;10.176;2022-12-07T11:00:54;4.40;99.90
17202;DHT22;8717;53.588;10.176;2022-12-07T11:03:40;4.40;99.90
17202;DHT22;8717;53.588;10.176;2022-12-07T11:06:16;4.40;99.90
17202;DHT22;8717;53.588;10.176;2022-12-07T11:09:02;4.40;99.90
17202;DHT22;8717;53.588;10.176;2022-12-07T11:11:34;4.40;99.90
17202;DHT22;8717;53.588;10.176;2022-12-07T11:14:08;4.40;99.90
17202;DHT22;8717;53.588;10.176;2022-12-07T11:16:56;4.40;99.90
17202;DHT22;8717;53.588;10.176;2022-12-07T11:19:34;4.40;99.90
17202;DHT22;8717;53.588;10.176;2022-12-07T11:22:14;4.50;99.90
17202;DHT22;8717;53.588;10.176;2022-12-07T11:24:50;4.50;99.90
17202;DHT22;8717;53.588;10.176;2022-12-07T11:27:28;4.50;99.90
17202;DHT22;8717;53.588;10.176;2022-12-07T11:30:13;4.50;99.90
17202;DHT22;8717;53.588;10.176;2022-12-07T11:32:54;4.50;99.90
17202;DHT22;8717;53.588;10.176;2022-12-07T11:35:32;4.50;99.90
17202;DHT22;8717;53.588;10.176;2022-12-07T11:38:07;4.50;99.90
17202;DHT22;8717;53.588;10.176;2022-12-07T11:40:36;4.50;99.90
17202;DHT22;8717;53.588;10.176;2022-12-07T11:43:06;4.50;99.90
17202;DHT22;8717;53.588;10.176;2022-12-07T11:45:39;4.50;99.90
17202;DHT22;8717;53.588;10.176;2022-12-07T11:48:12;4.50;99.90
17202;DHT22;8717;53.588;10.176;2022-12-07T11:50:47;4.50;99.90
17202;DHT22;8717;53.588;10.176;2022-12-07T11:53:18;4.50;99.90
17202;DHT22;8717;53.588;10.176;2022-12-07T11:55:50;4.50;99.90
17202;DHT22;8717;53.588;10.176;2022-12-07T11:58:30;4.50;99.90
17202;DHT22;8717;53.588;10.176;2022-12-07T12:01:11;4.50;99.90
17202;DHT22;8717;53.588;10.176;2022-12-07T12:03:42;4.50;99.90
17202;DHT22;8717;53.588;10.176;2022-12-07T12:06:11;4.50;99.90
17202;DHT22;8717;53.588;10.176;2022-12-07T12:08:41;4.50;99.90
17202;DHT22;8717;53.588;10.176;2022-12-07T12:11:23;4.50;99.90
17202;DHT22;8717;53.588;10.176;2022-12-07T12:14:27;4.60;99.90
17202;DHT22;8717;53.588;10.176;2022-12-07T12:17:18;4.60;99.90
17202;DHT22;8717;53.588;10.176;2022-12-07T12:19:59;4.60;99.90
17202;DHT22;8717;53.588;10.176;2022-12-07T12:22:33;4.60;99.90
17202;DHT22;8717;53.588;10.176;2022-12-07T12:25:04;4.60;99.90
17202;DHT22;8717;53.588;10.176;2022-12-07T12:27:35;4.60;99.90
17202;DHT22;8717;53.588;10.176;2022-12-07T12:30:05;4.60;99.90
17202;DHT22;8717;53.588;10.176;2022-12-07T12:32:37;4.60;99.90
17202;DHT22;8717;53.588;10.176;2022-12-07T12:35:21;4.50;99.90
17202;DHT22;8717;53.588;10.176;2022-12-07T12:37:52;4.50;99.90
17202;DHT22;8717;53.588;10.176;2022-12-07T12:40:41;4.50;99.90
17202;DHT22;8717;53.588;10.176;2022-12-07T12:46:48;4.40;99.90
17202;DHT22;8717;53.588;10.176;2022-12-07T12:49:36;4.40;99.90
17202;DHT22;8717;53.588;10.176;2022-12-07T12:55:18;4.40;99.90
17202;DHT22;8717;53.588;10.176;2022-12-07T12:57:48;4.40;99.90
17202;DHT22;8717;53.588;10.176;2022-12-07T13:00:34;4.30;99.90
17202;DHT22;8717;53.588;10.176;2022-12-07T13:03:01;4.30;99.90
17202;DHT22;8717;53.588;10.176;2022-12-07T13:05:29;4.30;99.90
17202;DHT22;8717;53.588;10.176;2022-12-07T13:07:59;4.20;99.90
17202;DHT22;8717;53.588;10.176;2022-12-07T13:10:44;4.20;99.90
17202;DHT22;8717;53.588;10.176;2022-12-07T13:13:32;4.20;99.90
17202;DHT22;8717;53.588;10.176;2022-12-07T13:16:37;4.10;99.90
17202;DHT22;8717;53.588;10.176;2022-12-07T13:22:39;4.10;99.90
17202;DHT22;8717;53.588;10.176;2022-12-07T13:25:10;4.00;99.90
17202;DHT22;8717;53.588;10.176;2022-12-07T13:27:43;4.00;99.90
17202;DHT22;8717;53.588;10.176;2022-12-07T13:30:15;4.00;99.90
17202;DHT22;8717;53.588;10.176;2022-12-07T13:32:42;4.00;99.90
17202;DHT22;8717;53.588;10.176;2022-12-07T13:35:32;3.90;99.90
17202;DHT22;8717;53.588;10.176;2022-12-07T13:38:02;3.90;99.90
17202;DHT22;8717;53.588;10.176;2022-12-07T13:40:32;3.90;99.90
17202;DHT22;8717;53.588;10.176;2022-12-07T13:43:03;3.90;99.90
17202;DHT22;8717;53.588;10.176;2022-12-07T13:45:32;3.90;99.90
17202;DHT22;8717;53.588;10.176;2022-12-07T13:48:21;4.00;99.90
17202;DHT22;8717;53.588;10.176;2022-12-07T13:50:55;3.90;99.90
17202;DHT22;8717;53.588;10.176;2022-12-07T13:53:22;3.90;99.90
17202;DHT22;8717;53.588;10.176;2022-12-07T13:55:49;3.90;99.90
17202;DHT22;8717;53.588;10.176;2022-12-07T13:58:19;3.90;99.90
17202;DHT22;8717;53.588;10.176;2022-12-07T14:00:49;3.90;99.90
17202;DHT22;8717;53.588;10.176;2022-12-07T14:03:28;3.80;99.90
17202;DHT22;8717;53.588;10.176;2022-12-07T14:06:16;3.80;99.90
17202;DHT22;8717;53.588;10.176;2022-12-07T14:08:43;3.80;99.90
17202;DHT22;8717;53.588;10.176;2022-12-07T14:11:13;3.70;99.90
17202;DHT22;8717;53.588;10.176;2022-12-07T14:13:51;3.70;99.90
17202;DHT22;8717;53.588;10.176;2022-12-07T14:16:27;3.60;99.90
17202;DHT22;8717;53.588;10.176;2022-12-07T14:18:56;3.60;99.90
17202;DHT22;8717;53.588;10.176;2022-12-07T14:21:26;3.50;99.90
17202;DHT22;8717;53.588;10.176;2022-12-07T14:24:12;3.50;99.90
17202;DHT22;8717;53.588;10.176;2022-12-07T14:26:40;3.40;99.90
17202;DHT22;8717;53.588;10.176;2022-12-07T14:29:29;3.30;99.90
17202;DHT22;8717;53.588;10.176;2022-12-07T14:31:57;3.20;99.90
17202;DHT22;8717;53.588;10.176;2022-12-07T14:34:25;3.20;99.90
17202;DHT22;8717;53.588;10.176;2022-12-07T14:36:54;3.10;99.90
17202;DHT22;8717;53.588;10.176;2022-12-07T14:39:21;3.00;99.90
17202;DHT22;8717;53.588;10.176;2022-12-07T14:41:47;3.00;99.90
17202;DHT22;8717;53.588;10.176;2022-12-07T14:44:18;2.90;99.90
17202;DHT22;8717;53.588;10.176;2022-12-07T14:46:52;2.90;99.90
17202;DHT22;8717;53.588;10.176;2022-12-07T14:49:19;2.80;99.90
17202;DHT22;8717;53.588;10.176;2022-12-07T14:51:47;2.70;99.90
17202;DHT22;8717;53.588;10.176;2022-12-07T14:54:18;2.60;99.90
17202;DHT22;8717;53.588;10.176;2022-12-07T14:56:45;2.60;99.90
17202;DHT22;8717;53.588;10.176;2022-12-07T14:59:15;2.50;99.90
17202;DHT22;8717;53.588;10.176;2022-12-07T15:01:41;2.40;99.90
17202;DHT22;8717;53.588;10.176;2022-12-07T15:04:11;2.40;99.90
17202;DHT22;8717;53.588;10.176;2022-12-07T15:06:38;2.30;99.90
17202;DHT22;8717;53.588;10.176;2022-12-07T15:09:05;2.20;99.90
17202;DHT22;8717;53.588;10.176;2022-12-07T15:11:32;2.20;99.90
17202;DHT22;8717;53.588;10.176;2022-12-07T15:13:58;2.10;99.90
17202;DHT22;8717;53.588;10.176;2022-12-07T15:16:34;2.10;99.90
17202;DHT22;8717;53.588;10.176;2022-12-07T15:19:01;2.00;99.90
17202;DHT22;8717;53.588;10.176;2022-12-07T15:21:29;1.90;99.90
17202;DHT22;8717;53.588;10.176;2022-12-07T15:23:56;1.80;99.90
17202;DHT22;8717;53.588;10.176;2022-12-07T15:26:22;1.70;99.90
17202;DHT22;8717;53.588;10.176;2022-12-07T15:28:49;1.70;99.90
17202;DHT22;8717;53.588;10.176;2022-12-07T15:31:17;1.70;99.90
17202;DHT22;8717;53.588;10.176;2022-12-07T15:33:44;1.60;99.90
17202;DHT22;8717;53.588;10.176;2022-12-07T15:36:18;1.60;99.90
17202;DHT22;8717;53.588;10.176;2022-12-07T15:38:47;1.50;99.90
17202;DHT22;8717;53.588;10.176;2022-12-07T15:41:15;1.50;99.90
17202;DHT22;8717;53.588;10.176;2022-12-07T15:43:41;1.40;99.90
17202;DHT22;8717;53.588;10.176;2022-12-07T15:46:29;1.40;99.90
17202;DHT22;8717;53.588;10.176;2022-12-07T15:48:56;1.30;99.90
17202;DHT22;8717;53.588;10.176;2022-12-07T15:51:23;1.30;99.90
17202;DHT22;8717;53.588;10.176;2022-12-07T15:53:51;1.30;99.90
17202;DHT22;8717;53.588;10.176;2022-12-07T15:56:18;1.20;99.90
17202;DHT22;8717;53.588;10.176;2022-12-07T15:58:45;1.20;99.90
17202;DHT22;8717;53.588;10.176;2022-12-07T16:01:12;1.10;99.90
17202;DHT22;8717;53.588;10.176;2022-12-07T16:03:39;1.00;99.90
17202;DHT22;8717;53.588;10.176;2022-12-07T16:06:06;1.00;99.90
17202;DHT22;8717;53.588;10.176;2022-12-07T16:08:33;0.90;99.90
17202;DHT22;8717;53.588;10.176;2022-12-07T16:11:04;0.80;99.90
17202;DHT22;8717;53.588;10.176;2022-12-07T16:13:31;0.80;99.90
17202;DHT22;8717;53.588;10.176;2022-12-07T16:15:58;0.70;99.90
17202;DHT22;8717;53.588;10.176;2022-12-07T16:18:28;0.60;99.90
17202;DHT22;8717;53.588;10.176;2022-12-07T16:20:54;0.60;99.90
17202;DHT22;8717;53.588;10.176;2022-12-07T16:23:21;0.50;99.90